Time;durP1;ratioP1;P1;durP2;ratioP2;P2;SDS_P1;SDS_P2;PMS_P1;PMS_P2;Temp;Humidity;BMP_temperature;BMP_pressure;BME280_temperature;BME280_humidity;BME280_pressure;Samples;Min_cycle;Max_cycle;Signal;HPM_P1;HPM_P2
2023/05/08 00:00:22;;;;;;;5.00;4.03;;;19.70;68.40;;;;;;5013536;28;20033;-77
2023/05/08 00:02:48;;;;;;;5.00;4.18;;;19.60;68.30;;;;;;5003360;28;20105;-77
2023/05/08 00:05:14;;;;;;;4.90;3.67;;;19.60;68.30;;;;;;5018579;28;20037;-77
2023/05/08 00:07:39;;;;;;;4.32;3.67;;;19.60;68.30;;;;;;5007773;28;20049;-77
2023/05/08 00:10:07;;;;;;;5.18;3.95;;;19.60;68.40;;;;;;4984248;28;20661;-77
2023/05/08 00:12:33;;;;;;;4.28;3.30;;;19.60;68.40;;;;;;5032421;28;20041;-77
2023/05/08 00:14:59;;;;;;;5.00;3.92;;;19.60;68.40;;;;;;5004342;28;20105;-77
2023/05/08 00:17:25;;;;;;;5.13;4.18;;;19.60;68.40;;;;;;5015185;28;20026;-77
2023/05/08 00:19:51;;;;;;;5.15;3.97;;;19.50;68.30;;;;;;5011460;28;20025;-77
2023/05/08 00:22:18;;;;;;;5.43;4.50;;;19.50;68.30;;;;;;5014828;28;20061;-76
2023/05/08 00:24:44;;;;;;;5.00;4.13;;;19.60;68.40;;;;;;4990667;28;20057;-77
2023/05/08 00:27:10;;;;;;;5.05;4.20;;;19.50;68.30;;;;;;5026278;28;20053;-79
2023/05/08 00:29:36;;;;;;;5.60;4.40;;;19.50;68.30;;;;;;4988596;28;20034;-76
2023/05/08 00:32:02;;;;;;;5.38;4.45;;;19.50;68.40;;;;;;5006898;28;20129;-77
2023/05/08 00:34:27;;;;;;;5.40;4.38;;;19.50;68.40;;;;;;5020960;28;20492;-78
2023/05/08 00:36:55;;;;;;;5.38;3.90;;;19.50;68.40;;;;;;4991369;28;20440;-77
2023/05/08 00:39:21;;;;;;;5.47;4.57;;;19.40;68.40;;;;;;5034502;28;20034;-77
2023/05/08 00:41:46;;;;;;;5.55;4.55;;;19.40;68.40;;;;;;5010632;28;20075;-77
2023/05/08 00:44:12;;;;;;;5.68;4.97;;;19.40;68.40;;;;;;4997828;28;20061;-77
2023/05/08 00:46:39;;;;;;;5.50;4.40;;;19.40;68.40;;;;;;5003186;28;20030;-77
2023/05/08 00:49:09;;;;;;;5.65;4.60;;;19.40;68.50;;;;;;5007067;28;20025;-77
2023/05/08 00:51:36;;;;;;;5.47;4.50;;;19.40;68.50;;;;;;5011689;28;20590;-76
2023/05/08 00:54:02;;;;;;;5.90;4.65;;;19.30;68.50;;;;;;5003632;28;20088;-77
2023/05/08 00:56:29;;;;;;;5.40;4.85;;;19.40;68.60;;;;;;5013289;28;20057;-77
2023/05/08 00:58:55;;;;;;;5.72;4.65;;;19.30;68.60;;;;;;4998184;28;20030;-76
2023/05/08 01:01:22;;;;;;;6.95;4.90;;;19.30;69.20;;;;;;4999773;28;20033;-77
2023/05/08 01:03:48;;;;;;;5.82;4.80;;;19.30;68.60;;;;;;5002325;28;20040;-77
2023/05/08 01:06:14;;;;;;;6.22;5.57;;;19.30;68.70;;;;;;5007833;28;20030;-76
2023/05/08 01:08:41;;;;;;;6.68;5.35;;;19.30;68.60;;;;;;5003761;28;20022;-78
2023/05/08 01:11:18;;;;;;;5.93;4.82;;;19.30;68.70;;;;;;5020213;28;20038;-78
2023/05/08 01:14:21;;;;;;;6.32;5.10;;;19.20;68.60;;;;;;5009408;28;20044;-77
2023/05/08 01:16:58;;;;;;;5.80;4.75;;;19.20;68.70;;;;;;5008299;28;20054;-77
2023/05/08 01:19:51;;;;;;;5.75;5.03;;;19.20;68.70;;;;;;5020532;28;20035;-76
2023/05/08 01:22:27;;;;;;;6.13;4.88;;;19.20;68.80;;;;;;5001337;28;20109;-76
2023/05/08 01:25:24;;;;;;;5.75;4.95;;;19.10;68.70;;;;;;4999543;28;20038;-78
2023/05/08 01:28:11;;;;;;;5.80;4.78;;;19.10;68.70;;;;;;4996401;28;20033;-78
2023/05/08 01:30:54;;;;;;;5.40;4.72;;;19.10;68.70;;;;;;5041275;28;20036;-77
2023/05/08 01:33:39;;;;;;;6.22;5.30;;;19.10;68.80;;;;;;5016394;28;20387;-78
2023/05/08 01:36:20;;;;;;;5.65;4.50;;;19.10;68.80;;;;;;5002285;28;20512;-78
2023/05/08 01:39:01;;;;;;;6.50;5.55;;;19.00;68.80;;;;;;5020968;28;20042;-78
2023/05/08 01:41:28;;;;;;;6.20;5.13;;;19.00;68.90;;;;;;5004290;28;20674;-78
2023/05/08 01:44:14;;;;;;;5.88;5.28;;;19.00;68.80;;;;;;5005174;28;20030;-77
2023/05/08 01:46:43;;;;;;;6.00;5.15;;;19.00;68.90;;;;;;5016693;28;20092;-78
2023/05/08 01:49:22;;;;;;;6.25;5.07;;;18.90;68.90;;;;;;5012725;28;20026;-77
2023/05/08 01:51:58;;;;;;;6.13;5.53;;;18.90;68.90;;;;;;5002166;28;20018;-77
2023/05/08 01:54:27;;;;;;;6.80;5.88;;;18.90;68.90;;;;;;5021316;28;20740;-77
2023/05/08 01:56:56;;;;;;;6.45;5.50;;;18.90;68.90;;;;;;5010736;28;20509;-76
2023/05/08 01:59:25;;;;;;;7.38;5.75;;;18.90;68.90;;;;;;4992643;28;20028;-77
2023/05/08 02:01:55;;;;;;;6.25;5.28;;;18.90;69.00;;;;;;5000017;28;20026;-77
2023/05/08 02:04:22;;;;;;;7.00;5.70;;;18.90;69.00;;;;;;5003056;28;20038;-76
2023/05/08 02:06:50;;;;;;;6.68;5.47;;;18.90;69.00;;;;;;5008622;28;20029;-76
2023/05/08 02:09:18;;;;;;;6.35;5.65;;;18.80;69.00;;;;;;5026579;28;20056;-78
2023/05/08 02:11:46;;;;;;;7.18;6.10;;;18.80;69.00;;;;;;5009715;28;20698;-77
2023/05/08 02:14:18;;;;;;;6.95;5.90;;;18.80;69.00;;;;;;5011126;28;20391;-76
2023/05/08 02:16:49;;;;;;;6.82;5.40;;;18.80;69.10;;;;;;5010817;28;20069;-76
2023/05/08 02:19:17;;;;;;;7.30;5.97;;;18.80;69.10;;;;;;5009226;28;20026;-77
2023/05/08 02:21:44;;;;;;;6.72;5.95;;;18.70;69.10;;;;;;5005577;28;20025;-76
2023/05/08 02:24:12;;;;;;;7.68;6.35;;;18.70;69.10;;;;;;5008515;28;20548;-76
2023/05/08 02:26:40;;;;;;;7.28;6.22;;;18.70;69.20;;;;;;5014429;28;20558;-77
2023/05/08 02:29:06;;;;;;;7.00;6.05;;;18.70;69.20;;;;;;5004356;28;20084;-77
2023/05/08 02:31:33;;;;;;;8.07;6.90;;;18.70;69.20;;;;;;4998369;28;20054;-77
2023/05/08 02:34:02;;;;;;;7.70;6.40;;;18.60;69.10;;;;;;5006182;28;20173;-78
2023/05/08 02:36:30;;;;;;;7.65;6.32;;;18.60;69.10;;;;;;4979942;28;20080;-76
2023/05/08 02:38:59;;;;;;;6.88;6.18;;;18.60;69.20;;;;;;5010727;28;20022;-78
2023/05/08 02:41:29;;;;;;;6.82;6.13;;;18.60;69.20;;;;;;5018023;28;20052;-80
2023/05/08 02:43:55;;;;;;;7.00;6.30;;;18.60;69.20;;;;;;5010181;28;20176;-76
2023/05/08 02:46:33;;;;;;;6.95;6.00;;;18.50;69.20;;;;;;5006475;28;20709;-77
2023/05/08 02:49:25;;;;;;;6.97;5.97;;;18.50;69.30;;;;;;5010818;28;20462;-77
2023/05/08 02:51:58;;;;;;;6.70;5.85;;;18.50;69.30;;;;;;5010394;28;20391;-79
2023/05/08 02:54:32;;;;;;;7.15;6.18;;;18.50;69.30;;;;;;5015638;28;20042;-80
2023/05/08 02:57:05;;;;;;;6.97;6.03;;;18.40;69.30;;;;;;5047853;28;20034;-79
2023/05/08 02:59:41;;;;;;;7.00;6.00;;;18.50;69.30;;;;;;5031993;28;20052;-79
2023/05/08 03:02:39;;;;;;;7.13;6.40;;;18.40;69.30;;;;;;5031555;28;20034;-79
2023/05/08 03:05:31;;;;;;;6.85;6.07;;;18.40;69.40;;;;;;5031594;28;20466;-79
2023/05/08 03:08:02;;;;;;;7.18;5.80;;;18.40;69.40;;;;;;5031596;28;20041;-79
2023/05/08 03:10:32;;;;;;;7.07;5.97;;;18.30;69.30;;;;;;4998633;28;20061;-79
2023/05/08 03:13:02;;;;;;;7.13;6.22;;;18.30;69.40;;;;;;4998569;28;20040;-79
2023/05/08 03:15:35;;;;;;;7.15;5.85;;;18.30;69.40;;;;;;5030955;28;20030;-79
2023/05/08 03:18:09;;;;;;;7.82;6.65;;;18.30;69.40;;;;;;5030201;28;20080;-79
2023/05/08 03:20:40;;;;;;;;;;;18.20;69.40;;;;;;5031147;28;20075;-80
2023/05/08 03:23:09;;;;;;;5.78;4.95;;;18.20;69.20;;;;;;5014485;28;19909;-79
2023/05/08 03:25:38;;;;;;;6.85;5.68;;;18.30;69.40;;;;;;5014737;28;20068;-80
2023/05/08 03:28:05;;;;;;;6.90;6.10;;;18.20;69.40;;;;;;5014446;28;20068;-79
2023/05/08 03:30:35;;;;;;;8.30;6.13;;;18.20;69.40;;;;;;5015089;28;20113;-79
2023/05/08 03:33:06;;;;;;;;;;;18.20;69.50;;;;;;5047350;28;20049;-80
2023/05/08 03:35:37;;;;;;;6.03;5.15;;;18.10;69.30;;;;;;5030421;28;19925;-79
2023/05/08 03:38:05;;;;;;;6.53;5.63;;;18.10;69.30;;;;;;5028987;28;20053;-79
2023/05/08 03:40:43;;;;;;;7.32;6.40;;;18.10;69.40;;;;;;5014153;28;20061;-79
2023/05/08 03:43:10;;;;;;;6.50;5.78;;;18.10;69.50;;;;;;5031262;28;20079;-79
2023/05/08 03:45:39;;;;;;;6.93;6.03;;;18.10;69.50;;;;;;4997872;28;20132;-79
2023/05/08 03:48:07;;;;;;;7.28;6.05;;;18.00;69.50;;;;;;5046829;28;20026;-79
2023/05/08 03:50:35;;;;;;;7.28;6.47;;;18.00;69.50;;;;;;5014284;28;20053;-80
2023/05/08 03:53:02;;;;;;;7.40;6.70;;;18.00;69.60;;;;;;5030656;28;20041;-79
2023/05/08 03:55:29;;;;;;;7.28;6.50;;;18.00;69.60;;;;;;5030512;28;20065;-79
2023/05/08 03:57:56;;;;;;;7.00;6.30;;;17.90;69.60;;;;;;5014618;28;20038;-79
2023/05/08 04:00:44;;;;;;;7.57;6.78;;;17.90;69.60;;;;;;4997619;28;20037;-79
2023/05/08 04:03:14;;;;;;;6.22;5.38;;;18.00;69.70;;;;;;5014573;28;20030;-79
2023/05/08 04:05:50;;;;;;;7.80;6.65;;;17.90;69.50;;;;;;4997124;28;20037;-79
2023/05/08 04:08:24;;;;;;;7.47;6.10;;;17.90;69.60;;;;;;5014004;28;20038;-78
2023/05/08 04:11:10;;;;;;;7.60;6.70;;;17.90;69.70;;;;;;5030280;28;20484;-80
2023/05/08 04:13:47;;;;;;;6.80;5.93;;;17.90;69.70;;;;;;5030222;28;20026;-79
2023/05/08 04:16:25;;;;;;;7.45;6.57;;;17.80;69.60;;;;;;5046967;28;20030;-79
2023/05/08 04:18:59;;;;;;;7.30;6.38;;;17.80;69.70;;;;;;5027008;28;20030;-79
2023/05/08 04:21:27;;;;;;;7.35;6.55;;;17.80;69.70;;;;;;5030071;28;20079;-79
2023/05/08 04:23:57;;;;;;;8.27;6.90;;;17.80;69.60;;;;;;5013617;28;20049;-79
2023/05/08 04:26:24;;;;;;;7.65;6.78;;;17.70;69.60;;;;;;5030090;28;20026;-78
2023/05/08 04:28:51;;;;;;;6.97;6.28;;;17.80;69.70;;;;;;5029744;28;20032;-78
2023/05/08 04:31:18;;;;;;;7.03;6.32;;;17.70;69.70;;;;;;5013519;28;20084;-79
2023/05/08 04:33:45;;;;;;;7.55;6.75;;;17.70;69.70;;;;;;4997056;28;20065;-79
2023/05/08 04:36:14;;;;;;;7.60;6.78;;;17.70;69.70;;;;;;4997014;28;20038;-79
2023/05/08 04:38:42;;;;;;;7.38;6.55;;;17.70;69.70;;;;;;5046822;28;20025;-78
2023/05/08 04:41:09;;;;;;;7.90;6.90;;;17.70;69.70;;;;;;5013157;28;20034;-79
2023/05/08 04:43:36;;;;;;;7.45;6.68;;;17.70;69.70;;;;;;4997231;28;20084;-79
2023/05/08 04:46:05;;;;;;;7.80;6.95;;;17.70;69.80;;;;;;4997127;28;20060;-78
2023/05/08 04:48:32;;;;;;;7.47;6.72;;;17.60;69.70;;;;;;4996652;28;20026;-79
2023/05/08 04:50:59;;;;;;;7.57;6.57;;;17.60;69.70;;;;;;5013955;28;20492;-79
2023/05/08 04:53:25;;;;;;;7.38;6.57;;;17.60;69.70;;;;;;5029204;28;20084;-79
2023/05/08 04:55:52;;;;;;;7.13;6.20;;;17.60;70.40;;;;;;4996776;28;20026;-78
2023/05/08 04:58:18;;;;;;;8.45;7.55;;;17.60;69.80;;;;;;5029239;28;20037;-78
2023/05/08 05:00:43;;;;;;;8.40;6.80;;;17.60;69.80;;;;;;5012472;28;20033;-79
2023/05/08 05:03:09;;;;;;;7.25;6.55;;;17.50;69.80;;;;;;4996447;28;20025;-78
2023/05/08 05:05:35;;;;;;;7.50;6.65;;;17.50;69.70;;;;;;4996437;28;20041;-79
2023/05/08 05:08:01;;;;;;;7.88;7.07;;;17.50;69.70;;;;;;5012944;28;20026;-79
2023/05/08 05:10:27;;;;;;;8.02;7.22;;;17.50;69.80;;;;;;5045512;28;20441;-78
2023/05/08 05:12:52;;;;;;;7.80;7.00;;;17.50;69.80;;;;;;4995889;28;20022;-79
2023/05/08 05:15:18;;;;;;;8.10;7.30;;;17.50;69.80;;;;;;4995818;28;20049;-78
2023/05/08 05:17:44;;;;;;;8.00;7.20;;;17.50;69.90;;;;;;5013158;28;20035;-77
2023/05/08 05:20:11;;;;;;;7.90;7.10;;;17.50;69.90;;;;;;5012410;28;20047;-76
2023/05/08 05:22:36;;;;;;;7.78;6.97;;;17.40;69.80;;;;;;5045188;28;20030;-78
2023/05/08 05:25:02;;;;;;;8.13;7.32;;;17.40;69.90;;;;;;5012367;28;20053;-78
2023/05/08 05:27:28;;;;;;;8.30;7.32;;;17.40;69.90;;;;;;5012117;28;20029;-78
2023/05/08 05:29:54;;;;;;;7.82;6.90;;;17.50;69.90;;;;;;5012074;28;20470;-78
2023/05/08 05:32:20;;;;;;;7.78;6.97;;;17.40;70.00;;;;;;4995714;28;20084;-78
2023/05/08 05:34:46;;;;;;;7.55;6.75;;;17.40;70.00;;;;;;4995443;28;20149;-79
2023/05/08 05:37:11;;;;;;;7.47;6.78;;;17.40;70.00;;;;;;4995729;28;20486;-78
2023/05/08 05:39:38;;;;;;;8.18;7.38;;;17.40;70.00;;;;;;5012119;28;20188;-78
2023/05/08 05:42:04;;;;;;;7.80;6.82;;;17.40;70.00;;;;;;4996126;28;20030;-77
2023/05/08 05:44:30;;;;;;;8.32;7.40;;;17.40;70.00;;;;;;5012743;28;20088;-78
2023/05/08 05:46:56;;;;;;;8.60;7.75;;;17.40;70.00;;;;;;5012050;28;20046;-78
2023/05/08 05:49:22;;;;;;;8.60;7.70;;;17.40;70.00;;;;;;5011914;28;20041;-78
2023/05/08 05:51:48;;;;;;;7.97;7.18;;;17.40;70.00;;;;;;5012069;28;20105;-78
2023/05/08 05:54:16;;;;;;;7.40;6.50;;;17.40;70.00;;;;;;4995865;28;20137;-78
2023/05/08 05:56:41;;;;;;;7.80;7.00;;;17.40;70.00;;;;;;4979472;28;20099;-78
2023/05/08 05:59:07;;;;;;;8.15;7.00;;;17.30;70.00;;;;;;4995531;28;20057;-78
2023/05/08 06:01:33;;;;;;;8.60;7.07;;;17.30;70.10;;;;;;4996042;28;20030;-78
2023/05/08 06:03:59;;;;;;;8.00;7.15;;;17.30;70.00;;;;;;4996122;28;20080;-78
2023/05/08 06:06:25;;;;;;;8.50;7.60;;;17.40;70.20;;;;;;4995543;28;20402;-78
2023/05/08 06:08:50;;;;;;;8.30;7.50;;;17.30;70.10;;;;;;4995380;28;20026;-78
2023/05/08 06:11:16;;;;;;;7.85;7.05;;;17.40;70.20;;;;;;5011752;28;20547;-78
2023/05/08 06:13:43;;;;;;;7.57;6.88;;;17.30;70.80;;;;;;5045303;28;20057;-78
2023/05/08 06:16:09;;;;;;;7.97;7.18;;;17.40;70.20;;;;;;5011890;28;20045;-79
2023/05/08 06:18:35;;;;;;;8.73;7.60;;;17.40;70.20;;;;;;4996149;28;20053;-77
2023/05/08 06:21:00;;;;;;;8.15;7.30;;;17.40;70.20;;;;;;4996345;28;20045;-76
2023/05/08 06:23:26;;;;;;;8.02;7.22;;;17.40;70.20;;;;;;5012037;28;20402;-76
2023/05/08 06:25:52;;;;;;;8.27;7.40;;;17.40;70.20;;;;;;5011544;28;20038;-77
2023/05/08 06:28:18;;;;;;;8.90;7.35;;;17.40;70.20;;;;;;5027662;28;20029;-77
2023/05/08 06:30:44;;;;;;;7.88;6.93;;;17.40;70.20;;;;;;5011489;28;20040;-77
2023/05/08 06:33:11;;;;;;;8.65;7.75;;;17.40;70.30;;;;;;5011872;28;20093;-77
2023/05/08 06:35:37;;;;;;;8.77;7.88;;;17.40;70.30;;;;;;5011229;28;20057;-76
2023/05/08 06:38:02;;;;;;;8.15;7.25;;;17.40;70.20;;;;;;5011516;28;20038;-77
2023/05/08 06:40:28;;;;;;;8.52;7.68;;;17.40;70.30;;;;;;5011321;28;20533;-76
2023/05/08 06:42:54;;;;;;;8.98;7.88;;;17.40;70.30;;;;;;5011386;28;20062;-77
2023/05/08 06:45:20;;;;;;;8.93;8.02;;;17.50;70.30;;;;;;5011437;28;20096;-76
2023/05/08 06:47:45;;;;;;;8.32;7.43;;;17.50;70.30;;;;;;5011121;28;20382;-77
2023/05/08 06:50:11;;;;;;;9.20;7.65;;;17.50;70.30;;;;;;5044448;28;20125;-77
2023/05/08 06:52:37;;;;;;;9.57;7.85;;;17.50;70.30;;;;;;5012294;28;20033;-78
2023/05/08 06:55:03;;;;;;;8.70;7.75;;;17.50;70.30;;;;;;5014928;28;20065;-77
2023/05/08 06:57:29;;;;;;;8.73;7.72;;;17.50;70.30;;;;;;5014611;28;20065;-77
2023/05/08 06:59:55;;;;;;;9.55;8.35;;;17.50;70.30;;;;;;5048103;28;20042;-77
2023/05/08 07:02:21;;;;;;;8.70;7.68;;;17.50;70.30;;;;;;5031261;28;20026;-77
2023/05/08 07:04:47;;;;;;;9.00;8.07;;;17.60;70.30;;;;;;5016107;28;20042;-77
2023/05/08 07:07:14;;;;;;;9.63;8.63;;;17.60;70.30;;;;;;5016340;28;20026;-77
2023/05/08 07:09:40;;;;;;;8.85;7.93;;;17.60;70.30;;;;;;5031282;28;20057;-77
2023/05/08 07:12:07;;;;;;;10.00;8.50;;;17.60;70.30;;;;;;4999107;28;20026;-77
2023/05/08 07:14:33;;;;;;;10.05;8.70;;;17.60;70.30;;;;;;4998565;28;20447;-77
2023/05/08 07:17:05;;;;;;;9.60;8.43;;;17.60;70.30;;;;;;5014410;28;20032;-77
2023/05/08 07:19:32;;;;;;;9.57;8.57;;;17.60;70.30;;;;;;5031299;28;20062;-77
2023/05/08 07:21:59;;;;;;;10.43;8.30;;;17.60;70.30;;;;;;5014218;28;20037;-77
2023/05/08 07:24:25;;;;;;;9.88;8.55;;;17.70;70.30;;;;;;5014156;28;20075;-77
2023/05/08 07:26:51;;;;;;;9.85;8.82;;;17.70;70.30;;;;;;5047865;28;20025;-77
2023/05/08 07:29:16;;;;;;;9.57;8.50;;;17.70;70.30;;;;;;5014250;28;20462;-77
2023/05/08 07:31:44;;;;;;;10.98;9.07;;;17.70;70.30;;;;;;5013964;28;20103;-77
2023/05/08 07:34:10;;;;;;;12.07;8.85;;;17.70;70.30;;;;;;4997833;28;20128;-77
2023/05/08 07:36:36;;;;;;;12.05;9.35;;;17.70;70.30;;;;;;5014594;28;20168;-78
2023/05/08 07:39:02;;;;;;;11.05;9.23;;;17.80;70.40;;;;;;5014089;28;20049;-78
2023/05/08 07:41:28;;;;;;;11.50;9.43;;;17.80;70.40;;;;;;5015521;28;20160;-78
2023/05/08 07:43:54;;;;;;;11.48;9.32;;;17.90;70.40;;;;;;5014237;28;20120;-77
2023/05/08 07:46:21;;;;;;;10.32;8.55;;;17.90;70.40;;;;;;4997597;28;20030;-78
2023/05/08 07:48:47;;;;;;;10.77;9.52;;;17.90;70.40;;;;;;5014194;28;20200;-77
2023/05/08 07:51:14;;;;;;;11.00;9.23;;;18.00;70.40;;;;;;5014008;28;20038;-77
2023/05/08 07:53:39;;;;;;;11.45;9.25;;;18.00;70.40;;;;;;5013614;28;20022;-77
2023/05/08 07:56:05;;;;;;;10.85;9.13;;;18.00;70.40;;;;;;5013554;28;20040;-77
2023/05/08 07:58:31;;;;;;;11.55;9.93;;;18.10;70.40;;;;;;5014749;28;20034;-77
2023/05/08 08:00:57;;;;;;;10.63;9.23;;;18.10;70.40;;;;;;4981256;28;20026;-77
2023/05/08 08:03:23;;;;;;;10.98;9.07;;;18.10;70.30;;;;;;5013669;28;20034;-77
2023/05/08 08:05:48;;;;;;;11.95;10.13;;;18.20;70.30;;;;;;5014087;28;20030;-77
2023/05/08 08:08:14;;;;;;;11.45;10.00;;;18.20;70.20;;;;;;5014461;28;20069;-77
2023/05/08 08:10:40;;;;;;;11.73;8.95;;;18.30;70.20;;;;;;4997904;28;20128;-77
2023/05/08 08:13:06;;;;;;;11.48;9.65;;;18.30;70.20;;;;;;5014065;28;20037;-77
2023/05/08 08:15:32;;;;;;;11.80;9.50;;;18.40;70.20;;;;;;5013235;28;20037;-77
2023/05/08 08:17:57;;;;;;;10.90;9.18;;;18.40;70.10;;;;;;5013731;28;20088;-78
2023/05/08 08:20:23;;;;;;;10.60;9.48;;;18.50;70.10;;;;;;4997957;28;20113;-78
2023/05/08 08:22:49;;;;;;;10.88;8.98;;;18.50;70.10;;;;;;5046629;28;20029;-78
2023/05/08 08:25:14;;;;;;;11.23;9.27;;;18.50;70.00;;;;;;4997419;28;20376;-76
2023/05/08 08:27:40;;;;;;;10.52;9.05;;;18.60;70.00;;;;;;5013649;28;20139;-78
2023/05/08 08:30:06;;;;;;;12.52;10.48;;;18.60;69.90;;;;;;4996833;28;20022;-78
2023/05/08 08:32:32;;;;;;;11.38;9.77;;;18.70;69.90;;;;;;5014384;28;20030;-77
2023/05/08 08:34:58;;;;;;;11.90;9.60;;;18.70;69.90;;;;;;5012699;28;20136;-78
2023/05/08 08:37:25;;;;;;;12.43;10.07;;;18.70;69.80;;;;;;5012926;28;20124;-78
2023/05/08 08:39:50;;;;;;;10.35;8.95;;;18.80;69.90;;;;;;4997031;28;20049;-78
2023/05/08 08:42:16;;;;;;;10.60;9.27;;;18.80;69.80;;;;;;5013004;28;20034;-78
2023/05/08 08:44:42;;;;;;;12.15;9.25;;;18.90;69.80;;;;;;5013074;28;20044;-78
2023/05/08 08:47:12;;;;;;;11.98;10.43;;;18.90;69.70;;;;;;4996802;28;20121;-78
2023/05/08 08:49:45;;;;;;;11.65;9.57;;;19.00;69.70;;;;;;5014059;28;20068;-78
2023/05/08 08:52:37;;;;;;;11.10;9.05;;;19.10;69.70;;;;;;5029586;28;20029;-78
2023/05/08 08:55:06;;;;;;;10.55;9.07;;;19.10;69.70;;;;;;5029316;28;20037;-78
2023/05/08 08:57:35;;;;;;;10.90;9.45;;;19.10;69.60;;;;;;5029768;28;20371;-78
2023/05/08 09:00:04;;;;;;;11.50;9.77;;;19.10;69.50;;;;;;5028866;28;20038;-78
2023/05/08 09:02:30;;;;;;;11.57;10.35;;;19.20;69.50;;;;;;5029323;28;20033;-78
2023/05/08 09:04:57;;;;;;;11.10;9.85;;;19.30;69.50;;;;;;5045623;28;20026;-78
2023/05/08 09:07:24;;;;;;;11.38;10.18;;;19.30;69.50;;;;;;5013827;28;20033;-78
2023/05/08 09:09:50;;;;;;;11.90;10.23;;;19.30;69.50;;;;;;5013832;28;20032;-78
2023/05/08 09:12:16;;;;;;;11.23;9.43;;;19.40;69.50;;;;;;5029701;28;20423;-78
2023/05/08 09:14:42;;;;;;;11.63;10.02;;;19.50;69.50;;;;;;5013010;28;20133;-78
2023/05/08 09:17:08;;;;;;;12.38;10.32;;;19.50;69.40;;;;;;5013365;28;20506;-78
2023/05/08 09:19:35;;;;;;;11.63;10.07;;;19.60;69.40;;;;;;5013772;28;20176;-78
2023/05/08 09:22:02;;;;;;;13.00;10.88;;;19.70;69.30;;;;;;5028622;28;20026;-78
2023/05/08 09:24:55;;;;;;;12.30;10.57;;;19.70;69.20;;;;;;5028727;28;20041;-77
2023/05/08 09:27:22;;;;;;;11.27;9.55;;;19.80;69.40;;;;;;5045442;28;20040;-78
2023/05/08 09:29:59;;;;;;;11.68;9.95;;;19.90;69.10;;;;;;5011917;28;20034;-78
2023/05/08 09:32:25;;;;;;;12.30;10.07;;;20.00;69.20;;;;;;5012150;28;20030;-78
2023/05/08 09:34:54;;;;;;;11.98;10.02;;;20.00;69.00;;;;;;5013091;28;20639;-78
2023/05/08 09:37:21;;;;;;;11.50;9.80;;;20.10;69.00;;;;;;5012426;28;20479;-78
2023/05/08 09:39:47;;;;;;;11.88;10.15;;;20.20;68.90;;;;;;5011761;28;20096;-77
2023/05/08 09:42:13;;;;;;;11.73;9.88;;;20.20;68.80;;;;;;5013263;28;20076;-78
2023/05/08 09:44:45;;;;;;;11.52;10.23;;;20.30;68.70;;;;;;4995861;28;20386;-78
2023/05/08 09:47:13;;;;;;;12.45;10.20;;;20.40;68.70;;;;;;5045778;28;20076;-77
2023/05/08 09:49:55;;;;;;;11.23;9.88;;;20.40;68.50;;;;;;5013233;28;20470;-78
2023/05/08 09:52:22;;;;;;;11.70;10.18;;;20.50;68.60;;;;;;5028321;28;20030;-78
2023/05/08 09:55:02;;;;;;;11.95;10.18;;;20.60;68.50;;;;;;5028268;28;20026;-78
2023/05/08 09:57:30;;;;;;;11.82;10.32;;;20.70;68.50;;;;;;5013455;28;20135;-78
2023/05/08 10:00:12;;;;;;;12.50;10.48;;;20.70;68.40;;;;;;5028253;28;20018;-78
2023/05/08 10:02:52;;;;;;;11.20;9.50;;;20.80;68.50;;;;;;5013267;28;20057;-78
2023/05/08 10:05:25;;;;;;;11.63;9.95;;;20.80;68.40;;;;;;5028451;28;20128;-78
2023/05/08 10:07:50;;;;;;;11.75;10.45;;;20.90;68.50;;;;;;5044858;28;20112;-78
2023/05/08 10:10:25;;;;;;;11.95;10.52;;;21.00;68.30;;;;;;5012236;28;20057;-78
2023/05/08 10:12:51;;;;;;;;;;;21.00;68.40;;;;;;5012639;28;20046;-78
2023/05/08 10:15:17;;;;;;;9.82;7.88;;;21.10;68.10;;;;;;5012323;28;19921;-78
2023/05/08 10:17:58;;;;;;;9.80;8.80;;;21.20;68.00;;;;;;5011446;28;20197;-78
2023/05/08 10:20:28;;;;;;;11.07;9.18;;;21.30;68.30;;;;;;5045408;28;20041;-78
2023/05/08 10:22:56;;;;;;;11.75;10.40;;;21.30;68.20;;;;;;5012010;28;20038;-79
2023/05/08 10:25:22;;;;;;;11.15;9.82;;;21.40;68.20;;;;;;5011464;28;20033;-72
2023/05/08 10:28:05;;;;;;;11.55;9.90;;;21.40;68.20;;;;;;5030226;28;20103;-72
2023/05/08 10:30:37;;;;;;;10.85;9.70;;;21.50;68.20;;;;;;5016377;28;20126;-73
2023/05/08 10:33:08;;;;;;;10.70;9.60;;;21.60;68.00;;;;;;5016264;28;20033;-73
2023/05/08 10:35:36;;;;;;;11.60;10.40;;;21.70;68.00;;;;;;5015094;28;20058;-82
2023/05/08 10:38:03;;;;;;;10.57;9.18;;;21.70;67.80;;;;;;5015198;28;20060;-79
2023/05/08 10:40:29;;;;;;;11.52;10.10;;;21.80;67.80;;;;;;5016809;28;20029;-80
2023/05/08 10:42:57;;;;;;;11.45;10.07;;;21.90;67.70;;;;;;5048966;28;20044;-84
2023/05/08 10:45:23;;;;;;;11.57;10.35;;;21.90;67.60;;;;;;5016518;28;20057;-80
2023/05/08 10:48:02;;;;;;;11.40;10.20;;;22.00;67.60;;;;;;4999371;28;20033;-80
2023/05/08 10:51:06;;;;;;;11.77;10.15;;;22.00;67.60;;;;;;5016963;28;20474;-80
2023/05/08 10:54:04;;;;;;;11.00;8.73;;;22.10;67.60;;;;;;5014182;28;20549;-79
2023/05/08 10:56:29;;;;;;;11.88;10.23;;;22.10;67.60;;;;;;4998223;28;20050;-80
2023/05/08 10:58:57;;;;;;;11.43;10.18;;;22.10;67.50;;;;;;5016328;28;20029;-82
2023/05/08 11:01:25;;;;;;;11.02;9.68;;;22.20;67.60;;;;;;5014616;28;20041;-79
2023/05/08 11:03:51;;;;;;;11.05;9.88;;;22.10;67.50;;;;;;5015991;28;20109;-80
2023/05/08 11:06:38;;;;;;;11.15;9.95;;;22.10;67.50;;;;;;5031055;28;20125;-80
2023/05/08 11:09:04;;;;;;;10.60;9.50;;;22.20;67.50;;;;;;5016385;28;20083;-80
2023/05/08 11:11:33;;;;;;;11.65;10.48;;;22.20;67.50;;;;;;5014505;28;20029;-79
2023/05/08 11:14:11;;;;;;;11.25;10.13;;;22.20;67.50;;;;;;4997835;28;20029;-79
2023/05/08 11:17:00;;;;;;;12.25;10.05;;;22.20;67.70;;;;;;5014826;28;20060;-79
2023/05/08 11:19:27;;;;;;;12.50;10.55;;;22.20;67.70;;;;;;5015676;28;20097;-79
2023/05/08 11:22:11;;;;;;;11.65;10.45;;;22.20;67.60;;;;;;5014122;28;20038;-78
2023/05/08 11:24:48;;;;;;;11.40;10.30;;;22.20;67.70;;;;;;5015730;28;20490;-78
2023/05/08 11:27:15;;;;;;;11.65;10.52;;;22.20;67.70;;;;;;5030963;28;20033;-79
2023/05/08 11:29:41;;;;;;;11.80;10.60;;;22.20;67.70;;;;;;4998125;28;20026;-79
2023/05/08 11:32:07;;;;;;;11.88;10.70;;;22.20;67.70;;;;;;5030998;28;20037;-78
2023/05/08 11:34:53;;;;;;;11.38;10.23;;;22.20;67.80;;;;;;5014043;28;20042;-79
2023/05/08 11:37:21;;;;;;;11.77;10.50;;;22.20;67.80;;;;;;5013916;28;20049;-79
2023/05/08 11:39:47;;;;;;;11.93;10.73;;;22.20;67.80;;;;;;5029872;28;20501;-78
2023/05/08 11:42:25;;;;;;;11.95;10.70;;;22.20;67.80;;;;;;5030314;28;20117;-78
2023/05/08 11:45:03;;;;;;;12.32;11.02;;;22.20;67.90;;;;;;5046835;28;20038;-78
2023/05/08 11:47:42;;;;;;;11.30;10.20;;;22.20;67.90;;;;;;5013768;28;20038;-78
2023/05/08 11:50:09;;;;;;;11.30;10.23;;;22.20;68.00;;;;;;5013970;28;20109;-78
2023/05/08 11:52:36;;;;;;;11.50;10.40;;;22.20;68.00;;;;;;5015334;28;20030;-78
2023/05/08 11:55:10;;;;;;;11.73;10.23;;;22.20;67.90;;;;;;4997725;28;20042;-78
2023/05/08 11:57:35;;;;;;;11.15;10.05;;;22.20;68.00;;;;;;5031018;28;20105;-78
2023/05/08 12:00:09;;;;;;;11.40;10.25;;;22.20;67.90;;;;;;4998272;28;20145;-78
2023/05/08 12:02:37;;;;;;;;;;;22.20;67.90;;;;;;4998477;28;20037;-78
2023/05/08 12:05:03;;;;;;;8.70;7.80;;;22.20;67.80;;;;;;5013980;28;19909;-78
2023/05/08 12:07:29;;;;;;;9.98;8.98;;;22.30;67.90;;;;;;5013473;28;20061;-78
2023/05/08 12:09:55;;;;;;;10.32;9.23;;;22.30;67.90;;;;;;5014104;28;20034;-78
2023/05/08 12:12:20;;;;;;;11.32;10.23;;;22.30;68.00;;;;;;4998099;28;20104;-79
2023/05/08 12:14:50;;;;;;;10.13;9.10;;;22.30;68.00;;;;;;5031260;28;20045;-79
2023/05/08 12:17:19;;;;;;;10.82;9.73;;;22.30;68.00;;;;;;5047211;28;20529;-79
2023/05/08 12:19:45;;;;;;;10.75;9.65;;;22.30;67.90;;;;;;4997391;28;20025;-79
2023/05/08 12:22:11;;;;;;;10.90;9.80;;;22.30;67.90;;;;;;5013404;28;20030;-80
2023/05/08 12:24:38;;;;;;;10.63;9.52;;;22.40;68.00;;;;;;5013439;28;20029;-79
2023/05/08 12:27:04;;;;;;;10.70;9.70;;;22.40;68.00;;;;;;5046099;28;20030;-80
2023/05/08 12:29:34;;;;;;;11.05;9.95;;;22.40;68.00;;;;;;4996798;28;20030;-80
2023/05/08 12:31:59;;;;;;;11.38;10.25;;;22.40;68.00;;;;;;5013633;28;20034;-80
2023/05/08 12:34:25;;;;;;;12.00;10.80;;;22.40;67.90;;;;;;5013061;28;20065;-81
2023/05/08 12:37:02;;;;;;;11.18;10.07;;;22.40;67.90;;;;;;4996725;28;20487;-80
2023/05/08 12:39:27;;;;;;;11.60;10.45;;;22.40;68.00;;;;;;5014794;28;20030;-80
2023/05/08 12:41:53;;;;;;;12.27;11.07;;;22.40;67.90;;;;;;4996564;28;20443;-81
2023/05/08 12:44:25;;;;;;;11.70;10.57;;;22.40;67.90;;;;;;4996752;28;20065;-81
2023/05/08 12:46:53;;;;;;;11.75;10.60;;;22.40;67.90;;;;;;5028946;28;20026;-81
2023/05/08 12:49:37;;;;;;;11.80;10.70;;;22.50;68.00;;;;;;5029550;28;20164;-81
2023/05/08 12:52:12;;;;;;;11.70;10.57;;;22.50;68.00;;;;;;5045439;28;20026;-85